Time,TemperatureF,DewpointF,PressureIn,WindDirection,WindDirectionDegrees,WindSpeedMPH,WindSpeedGustMPH,Humidity,HourlyPrecipIn,Conditions,Clouds,dailyrainin,SolarRadiationWatts/m^2,SoftwareType,DateUTC
2013-03-04 00:00:00,33.3,26.5,29.48,West,276,2.0,7.0,76,0.00,CLR,,0.00,0.0,WeatherDisplay:10.37,2013-03-04 05:00:00,
2013-03-04 00:05:00,33.2,26.5,29.48,West,264,3.5,0.0,76,0.00,CLR,,0.00,0.0,WeatherDisplay:10.37,2013-03-04 05:05:00,
2013-03-04 00:10:00,33.2,26.1,29.48,WNW,290,9.2,9.2,75,0.00,CLR,,0.00,0.0,WeatherDisplay:10.37,2013-03-04 05:10:00,
2013-03-04 00:15:00,33.2,26.5,29.48,WNW,301,4.0,4.0,76,0.00,CLR,,0.00,0.0,WeatherDisplay:10.37,2013-03-04 05:15:00,
2013-03-04 00:20:00,33.2,26.5,29.48,WNW,299,5.8,5.8,76,0.00,CLR,,0.00,0.0,WeatherDisplay:10.37,2013-03-04 05:20:00,
2013-03-04 00:25:00,33.1,26.0,29.48,West,276,9.2,9.2,75,0.00,CLR,,0.00,0.0,WeatherDisplay:10.37,2013-03-04 05:25:00,
2013-03-04 00:30:00,33.2,26.1,29.48,West,281,8.1,8.1,75,0.00,CLR,,0.00,0.0,WeatherDisplay:10.37,2013-03-04 05:30:00,
2013-03-04 00:35:00,33.2,25.8,29.48,WNW,300,12.7,12.7,74,0.00,CLR,,0.00,0.0,WeatherDisplay:10.37,2013-03-04 05:35:00,
2013-03-04 00:40:00,33.2,25.8,29.48,WNW,284,13.8,13.8,74,0.00,CLR,,0.00,0.0,WeatherDisplay:10.37,2013-03-04 05:40:00,
2013-03-04 00:45:00,33.2,25.8,29.48,NW,318,12.7,12.7,74,0.00,CLR,,0.00,0.0,WeatherDisplay:10.37,2013-03-04 05:45:00,
2013-03-04 00:50:00,33.1,25.7,29.48,WNW,300,12.7,12.7,74,0.00,CLR,,0.00,0.0,WeatherDisplay:10.37,2013-03-04 05:50:00,
2013-03-04 00:55:00,33.2,25.8,29.48,WNW,292,4.6,4.6,74,0.00,CLR,,0.00,0.0,WeatherDisplay:10.37,2013-03-04 05:55:00,
2013-03-04 01:00:00,33.2,25.8,29.48,West,259,6.9,6.9,74,0.00,CLR,,0.00,0.0,WeatherDisplay:10.37,2013-03-04 06:00:00,
2013-03-04 01:05:00,33.2,26.1,29.48,West,275,10.4,10.4,75,0.00,CLR,,0.00,0.0,WeatherDisplay:10.37,2013-03-04 06:05:00,
2013-03-04 01:10:00,33.3,25.9,29.48,WNW,286,5.8,5.8,74,0.00,CLR,,0.00,0.0,WeatherDisplay:10.37,2013-03-04 06:10:00,
2013-03-04 01:15:00,33.3,25.9,29.48,WNW,292,5.0,5.0,74,0.00,CLR,,0.00,0.0,WeatherDisplay:10.37,2013-03-04 06:15:00,
2013-03-04 01:20:00,33.3,25.9,29.48,WNW,283,6.9,6.9,74,0.00,CLR,,0.00,0.0,WeatherDisplay:10.37,2013-03-04 06:20:00,
2013-03-04 01:25:00,33.3,25.9,29.48,West,276,4.6,4.6,74,0.00,CLR,,0.00,0.0,WeatherDisplay:10.37,2013-03-04 06:25:00,
2013-03-04 01:30:00,33.3,25.9,29.48,WNW,289,2.3,2.3,74,0.00,CLR,,0.00,0.0,WeatherDisplay:10.37,2013-03-04 06:30:00,
2013-03-04 01:35:00,33.3,25.9,29.48,WNW,289,0.0,0.0,74,0.00,CLR,,0.00,0.0,WeatherDisplay:10.37,2013-03-04 06:35:00,
2013-03-04 01:40:00,33.2,26.1,29.48,WNW,289,2.3,0.0,75,0.00,CLR,,0.00,0.0,WeatherDisplay:10.37,2013-03-04 06:40:00,
2013-03-04 01:45:00,33.2,26.1,29.48,WNW,288,0.0,0.0,75,0.00,CLR,,0.00,0.0,WeatherDisplay:10.37,2013-03-04 06:45:00,
2013-03-04 01:50:00,33.1,26.0,29.48,WNW,289,0.0,0.0,75,0.00,CLR,,0.00,0.0,WeatherDisplay:10.37,2013-03-04 06:50:00,
2013-03-04 01:55:00,33.1,26.4,29.48,WNW,288,2.3,2.3,76,0.00,CLR,,0.00,0.0,WeatherDisplay:10.37,2013-03-04 06:55:00,
2013-03-04 02:00:00,32.9,26.2,29.48,WNW,289,1.2,1.2,76,0.00,CLR,,0.00,0.0,WeatherDisplay:10.37,2013-03-04 07:00:00,
2013-03-04 02:05:00,32.9,26.2,29.48,WNW,289,0.0,0.0,76,0.00,CLR,,0.00,0.0,WeatherDisplay:10.37,2013-03-04 07:05:00,
2013-03-04 02:10:00,32.8,26.4,29.47,WNW,289,0.0,0.0,77,0.00,CLR,,0.00,0.0,WeatherDisplay:10.37,2013-03-04 07:10:00,
2013-03-04 02:15:00,32.6,26.2,29.47,WNW,289,0.0,0.0,77,0.00,CLR,,0.00,0.0,WeatherDisplay:10.37,2013-03-04 07:15:00,
2013-03-04 02:20:00,32.6,26.2,29.47,WNW,288,0.0,0.0,77,0.00,CLR,,0.00,0.0,WeatherDisplay:10.37,2013-03-04 07:20:00,
2013-03-04 02:25:00,32.5,26.4,29.47,WNW,289,0.0,0.0,78,0.00,CLR,,0.00,0.0,WeatherDisplay:10.37,2013-03-04 07:25:00,
2013-03-04 02:30:00,32.4,26.3,29.47,WNW,289,0.0,0.0,78,0.00,CLR,,0.00,0.0,WeatherDisplay:10.37,2013-03-04 07:30:00,
2013-03-04 02:35:00,32.3,26.2,29.47,WNW,289,0.0,0.0,78,0.00,CLR,,0.00,0.0,WeatherDisplay:10.37,2013-03-04 07:35:00,
2013-03-04 02:40:00,32.2,26.1,29.47,WNW,288,0.0,0.0,78,0.00,CLR,,0.00,0.0,WeatherDisplay:10.37,2013-03-04 07:40:00,
2013-03-04 02:45:00,32.0,25.9,29.47,WNW,289,0.0,0.0,78,0.00,CLR,,0.00,0.0,WeatherDisplay:10.37,2013-03-04 07:45:00,
2013-03-04 02:50:00,31.9,25.8,29.47,WNW,289,0.0,0.0,78,0.00,CLR,,0.00,0.0,WeatherDisplay:10.37,2013-03-04 07:50:00,
2013-03-04 02:55:00,31.8,26.0,29.47,WNW,289,0.0,0.0,79,0.00,CLR,,0.00,0.0,WeatherDisplay:10.37,2013-03-04 07:55:00,
2013-03-04 03:00:00,31.7,26.2,29.47,WNW,288,2.3,0.0,80,0.00,CLR,,0.00,0.0,WeatherDisplay:10.37,2013-03-04 08:00:00,
2013-03-04 03:05:00,31.5,26.0,29.47,WNW,288,0.0,0.0,80,0.00,CLR,,0.00,0.0,WeatherDisplay:10.37,2013-03-04 08:05:00,
2013-03-04 03:10:00,31.4,26.2,29.46,WNW,289,2.3,2.3,81,0.00,CLR,,0.00,0.0,WeatherDisplay:10.37,2013-03-04 08:10:00,
2013-03-04 03:15:00,31.3,25.8,29.46,WNW,288,0.0,0.0,80,0.00,CLR,,0.00,0.0,WeatherDisplay:10.37,2013-03-04 08:15:00,
2013-03-04 03:20:00,31.2,25.7,29.46,WNW,289,0.0,0.2,80,0.00,CLR,,0.00,0.0,WeatherDisplay:10.37,2013-03-04 08:20:00,
2013-03-04 03:25:00,31.2,25.7,29.47,WNW,289,0.0,0.0,80,0.00,CLR,,0.00,0.0,WeatherDisplay:10.37,2013-03-04 08:25:00,
2013-03-04 03:30:00,31.2,25.7,29.47,WNW,289,0.0,0.0,80,0.00,CLR,,0.00,0.0,WeatherDisplay:10.37,2013-03-04 08:30:00,
2013-03-04 03:35:00,31.1,25.7,29.47,WNW,289,0.0,0.0,80,0.00,CLR,,0.00,0.0,WeatherDisplay:10.37,2013-03-04 08:35:00,
2013-03-04 03:40:00,31.1,25.7,29.47,WNW,289,0.0,0.0,80,0.00,CLR,,0.00,0.0,WeatherDisplay:10.37,2013-03-04 08:40:00,
2013-03-04 03:46:00,31.2,25.7,29.47,WNW,288,0.0,0.0,80,0.00,CLR,,0.00,0.0,WeatherDisplay:10.37,2013-03-04 08:46:00,
2013-03-04 03:51:00,31.2,25.7,29.47,WNW,289,1.2,0.0,80,0.00,CLR,,0.00,0.0,WeatherDisplay:10.37,2013-03-04 08:51:00,
2013-03-04 03:56:00,31.2,26.0,29.47,WNW,288,2.3,2.3,81,0.00,CLR,,0.00,0.0,WeatherDisplay:10.37,2013-03-04 08:56:00,
2013-03-04 04:01:00,31.1,26.0,29.47,WNW,289,0.0,0.0,81,0.00,CLR,,0.00,0.0,WeatherDisplay:10.37,2013-03-04 09:01:00,
2013-03-04 04:06:00,31.1,26.2,29.47,WNW,288,0.0,0.0,82,0.00,CLR,,0.00,0.0,WeatherDisplay:10.37,2013-03-04 09:06:00,
2013-03-04 04:11:00,31.1,26.2,29.48,WNW,289,0.0,0.0,82,0.00,CLR,,0.00,0.0,WeatherDisplay:10.37,2013-03-04 09:11:00,
2013-03-04 04:16:00,31.1,26.0,29.48,WNW,289,1.2,1.2,81,0.00,CLR,,0.00,0.0,WeatherDisplay:10.37,2013-03-04 09:16:00,
2013-03-04 04:21:00,31.0,25.9,29.48,WNW,289,0.0,0.0,81,0.00,CLR,,0.00,0.0,WeatherDisplay:10.37,2013-03-04 09:21:00,
2013-03-04 04:26:00,31.0,25.6,29.47,WNW,288,0.0,0.0,80,0.00,CLR,,0.00,0.0,WeatherDisplay:10.37,2013-03-04 09:26:00,
2013-03-04 04:31:00,31.0,25.6,29.47,WNW,289,0.0,0.0,80,0.00,CLR,,0.00,0.0,WeatherDisplay:10.37,2013-03-04 09:31:00,
2013-03-04 04:36:00,31.0,25.6,29.47,WNW,288,0.0,0.0,80,0.00,CLR,,0.00,0.0,WeatherDisplay:10.37,2013-03-04 09:36:00,
2013-03-04 04:41:00,30.9,25.5,29.47,WNW,289,0.0,0.0,80,0.00,CLR,,0.00,0.0,WeatherDisplay:10.37,2013-03-04 09:41:00,
2013-03-04 04:46:00,30.8,25.7,29.47,WNW,289,0.0,0.0,81,0.00,CLR,,0.00,0.0,WeatherDisplay:10.37,2013-03-04 09:46:00,
2013-03-04 04:51:00,30.9,25.5,29.47,West,262,6.9,6.9,80,0.00,CLR,,0.00,0.0,WeatherDisplay:10.37,2013-03-04 09:51:00,
2013-03-04 04:56:00,31.0,25.6,29.47,WNW,290,6.9,6.9,80,0.00,CLR,,0.00,0.0,WeatherDisplay:10.37,2013-03-04 09:56:00,
2013-03-04 05:01:00,31.4,25.3,29.47,WNW,291,10.4,10.4,78,0.00,CLR,,0.00,0.0,WeatherDisplay:10.37,2013-03-04 10:01:00,
2013-03-04 05:06:00,31.8,25.4,29.47,WNW,291,3.5,3.5,77,0.00,CLR,,0.00,0.0,WeatherDisplay:10.37,2013-03-04 10:06:00,
2013-03-04 05:11:00,32.0,25.3,29.47,WNW,286,5.8,5.8,76,0.00,CLR,,0.00,0.0,WeatherDisplay:10.37,2013-03-04 10:11:00,
2013-03-04 05:16:00,32.0,25.0,29.47,WNW,286,0.0,0.0,75,0.00,CLR,,0.00,0.0,WeatherDisplay:10.37,2013-03-04 10:16:00,
2013-03-04 05:21:00,32.1,25.1,29.47,WNW,286,1.2,1.2,75,0.00,CLR,,0.00,0.0,WeatherDisplay:10.37,2013-03-04 10:21:00,
2013-03-04 05:26:00,32.1,25.1,29.47,WNW,285,4.6,4.6,75,0.00,CLR,,0.00,0.0,WeatherDisplay:10.37,2013-03-04 10:26:00,
2013-03-04 05:31:00,32.1,24.7,29.47,SSW,204,0.0,0.3,74,0.00,CLR,,0.00,0.0,WeatherDisplay:10.37,2013-03-04 10:31:00,
2013-03-04 05:36:00,32.1,25.1,29.47,West,271,0.0,0.0,75,0.00,CLR,,0.00,0.0,WeatherDisplay:10.37,2013-03-04 10:36:00,
2013-03-04 05:41:00,32.0,25.0,29.47,WNW,289,3.5,3.5,75,0.00,CLR,,0.00,0.0,WeatherDisplay:10.37,2013-03-04 10:41:00,
2013-03-04 05:46:00,32.0,25.0,29.47,NW,306,2.3,2.3,75,0.00,CLR,,0.00,0.0,WeatherDisplay:10.37,2013-03-04 10:46:00,
2013-03-04 05:51:00,32.0,24.6,29.47,NW,306,0.0,0.0,74,0.00,CLR,,0.00,0.0,WeatherDisplay:10.37,2013-03-04 10:51:00,
2013-03-04 05:56:00,32.1,25.1,29.47,NW,306,1.2,1.2,75,0.00,CLR,,0.00,0.0,WeatherDisplay:10.37,2013-03-04 10:56:00,
2013-03-04 06:01:00,32.0,25.0,29.47,NW,306,0.0,0.0,75,0.00,CLR,,0.00,0.0,WeatherDisplay:10.37,2013-03-04 11:01:00,
2013-03-04 06:06:00,32.0,25.0,29.47,NW,306,3.0,3.0,75,0.00,CLR,,0.00,0.0,WeatherDisplay:10.37,2013-03-04 11:06:00,
2013-03-04 06:11:00,32.0,25.0,29.48,NW,306,3.5,3.5,75,0.00,CLR,,0.00,0.0,WeatherDisplay:10.37,2013-03-04 11:11:00,
2013-03-04 06:16:00,31.9,24.9,29.48,NW,306,3.5,3.5,75,0.00,CLR,,0.00,0.0,WeatherDisplay:10.37,2013-03-04 11:16:00,
2013-03-04 06:21:00,31.8,24.8,29.47,NW,306,1.2,1.2,75,0.00,FEW,,0.00,5.0,WeatherDisplay:10.37,2013-03-04 11:21:00,
2013-03-04 06:26:00,31.8,24.8,29.47,NW,306,1.2,1.2,75,0.00,BKN,,0.00,5.0,WeatherDisplay:10.37,2013-03-04 11:26:00,
2013-03-04 06:31:00,31.7,25.0,29.47,NW,306,3.5,3.5,76,0.00,BKN,,0.00,7.0,WeatherDisplay:10.37,2013-03-04 11:31:00,
2013-03-04 06:36:00,31.7,25.0,29.47,NW,306,3.5,3.5,76,0.00,BKN,,0.00,9.0,WeatherDisplay:10.37,2013-03-04 11:36:00,
2013-03-04 06:41:00,31.7,25.0,29.47,NW,306,0.0,0.0,76,0.00,BKN,,0.00,11.0,WeatherDisplay:10.37,2013-03-04 11:41:00,
2013-03-04 06:46:00,31.6,24.9,29.47,NW,306,3.5,3.5,76,0.00,BKN,,0.00,12.0,WeatherDisplay:10.37,2013-03-04 11:46:00,
2013-03-04 06:51:00,31.6,24.9,29.48,NW,306,0.0,0.0,76,0.00,BKN,,0.00,14.0,WeatherDisplay:10.37,2013-03-04 11:51:00,
2013-03-04 06:56:00,31.6,24.9,29.48,NW,306,0.0,0.0,76,0.00,BKN,,0.00,19.0,WeatherDisplay:10.37,2013-03-04 11:56:00,
2013-03-04 07:01:00,31.5,24.8,29.48,NW,306,0.0,0.1,76,0.00,BKN,,0.00,23.0,WeatherDisplay:10.37,2013-03-04 12:01:00,
2013-03-04 07:06:00,31.6,24.6,29.48,NW,306,1.2,0.0,75,0.00,BKN,,0.00,28.0,WeatherDisplay:10.37,2013-03-04 12:06:00,
2013-03-04 07:11:00,31.6,24.6,29.48,NW,306,3.5,3.5,75,0.00,BKN,,0.00,32.0,WeatherDisplay:10.37,2013-03-04 12:11:00,
2013-03-04 07:16:00,31.7,24.7,29.48,NW,306,0.0,0.0,75,0.00,BKN,,0.00,33.0,WeatherDisplay:10.37,2013-03-04 12:16:00,
2013-03-04 07:21:00,31.7,24.7,29.48,NW,306,1.2,0.0,75,0.00,BKN,,0.00,39.0,WeatherDisplay:10.37,2013-03-04 12:21:00,
2013-03-04 07:26:00,31.8,24.5,29.48,NW,306,0.0,0.0,74,0.00,BKN,,0.00,40.0,WeatherDisplay:10.37,2013-03-04 12:26:00,
2013-03-04 07:31:00,31.9,24.9,29.48,NW,306,1.2,1.2,75,0.00,BKN,,0.00,46.0,WeatherDisplay:10.37,2013-03-04 12:31:00,
2013-03-04 07:36:00,32.0,25.0,29.48,NW,306,0.0,0.1,75,0.00,BKN,,0.00,51.0,WeatherDisplay:10.37,2013-03-04 12:36:00,
2013-03-04 07:41:00,32.0,25.0,29.48,NW,306,0.0,0.0,75,0.00,BKN,,0.00,56.0,WeatherDisplay:10.37,2013-03-04 12:41:00,
2013-03-04 07:46:00,32.1,25.1,29.48,NW,306,0.0,0.0,75,0.00,BKN,,0.00,72.0,WeatherDisplay:10.37,2013-03-04 12:46:00,
2013-03-04 07:51:00,32.4,25.4,29.47,NW,306,1.2,1.2,75,0.00,BKN,,0.00,104.0,WeatherDisplay:10.37,2013-03-04 12:51:00,
2013-03-04 07:56:00,32.7,25.3,29.47,NW,306,0.0,0.1,74,0.00,SCT,,0.00,127.0,WeatherDisplay:10.37,2013-03-04 12:56:00,
2013-03-04 08:01:00,32.8,25.4,29.47,NW,306,1.0,1.0,74,0.00,SCT,,0.00,125.0,WeatherDisplay:10.37,2013-03-04 13:01:00,
2013-03-04 08:06:00,32.9,25.2,29.47,NW,306,2.3,2.3,73,0.00,BKN,,0.00,111.0,WeatherDisplay:10.37,2013-03-04 13:06:00,
2013-03-04 08:11:00,33.1,25.4,29.47,NW,306,0.0,0.0,73,0.00,BKN,,0.00,102.0,WeatherDisplay:10.37,2013-03-04 13:11:00,
2013-03-04 08:17:00,33.3,25.6,29.47,NW,306,0.0,0.0,73,0.00,BKN,,0.00,104.0,WeatherDisplay:10.37,2013-03-04 13:17:00,
2013-03-04 08:22:00,33.5,25.4,29.48,NW,306,2.3,2.3,72,0.00,BKN,,0.00,113.0,WeatherDisplay:10.37,2013-03-04 13:22:00,
2013-03-04 08:27:00,33.7,25.6,29.48,NW,306,1.2,1.2,72,0.00,BKN,,0.00,95.0,WeatherDisplay:10.37,2013-03-04 13:27:00,
2013-03-04 08:32:00,33.8,25.7,29.48,NW,306,0.0,0.0,72,0.00,BKN,,0.00,81.0,WeatherDisplay:10.37,2013-03-04 13:32:00,
2013-03-04 08:37:00,33.9,25.8,29.47,WNW,288,0.0,0.0,72,0.00,BKN,,0.00,93.0,WeatherDisplay:10.37,2013-03-04 13:37:00,
2013-03-04 08:42:00,34.1,25.7,29.47,West,264,10.4,10.4,71,0.00,BKN,,0.00,109.0,WeatherDisplay:10.37,2013-03-04 13:42:00,
2013-03-04 08:47:00,34.1,25.7,29.47,WNW,286,11.5,11.5,71,0.00,BKN,,0.00,142.0,WeatherDisplay:10.37,2013-03-04 13:47:00,
2013-03-04 08:52:00,34.2,25.1,29.48,West,277,4.0,4.0,69,0.00,BKN,,0.00,142.0,WeatherDisplay:10.37,2013-03-04 13:52:00,
2013-03-04 08:57:00,34.3,25.5,29.48,West,272,6.9,6.9,70,0.00,BKN,,0.00,139.0,WeatherDisplay:10.37,2013-03-04 13:57:00,
2013-03-04 09:02:00,34.2,25.4,29.48,WNW,288,4.6,4.6,70,0.00,BKN,,0.00,125.0,WeatherDisplay:10.37,2013-03-04 14:02:00,
2013-03-04 09:07:00,34.3,24.8,29.48,WNW,284,4.6,4.6,68,0.00,BKN,,0.00,120.0,WeatherDisplay:10.37,2013-03-04 14:07:00,
2013-03-04 09:12:00,34.4,24.6,29.48,WNW,298,10.4,10.4,67,0.00,BKN,,0.00,130.0,WeatherDisplay:10.37,2013-03-04 14:12:00,
2013-03-04 09:17:00,34.3,24.8,29.48,WNW,292,13.8,13.8,68,0.00,BKN,,0.00,160.0,WeatherDisplay:10.37,2013-03-04 14:17:00,
2013-03-04 09:22:00,34.2,24.4,29.48,WNW,286,11.5,11.5,67,0.00,BKN,,0.00,193.0,WeatherDisplay:10.37,2013-03-04 14:22:00,
2013-03-04 09:27:00,34.4,24.6,29.48,West,269,12.7,12.7,67,0.00,BKN,,0.00,223.0,WeatherDisplay:10.37,2013-03-04 14:27:00,
2013-03-04 09:32:00,34.4,23.8,29.48,WNW,294,10.4,10.4,65,0.00,SCT,,0.00,255.0,WeatherDisplay:10.37,2013-03-04 14:32:00,
2013-03-04 09:37:00,34.8,24.2,29.47,WNW,290,3.5,3.5,65,0.00,SCT,,0.00,269.0,WeatherDisplay:10.37,2013-03-04 14:37:00,
2013-03-04 09:42:00,34.8,25.7,29.47,WNW,283,3.5,3.5,69,0.00,BKN,,0.00,243.0,WeatherDisplay:10.37,2013-03-04 14:42:00,
2013-03-04 09:47:00,34.8,26.0,29.47,SW,224,6.9,6.9,70,0.00,BKN,,0.00,236.0,WeatherDisplay:10.37,2013-03-04 14:47:00,
2013-03-04 09:52:00,34.6,26.2,29.48,West,277,2.3,2.3,71,0.00,SCT,,0.00,260.0,WeatherDisplay:10.37,2013-03-04 14:52:00,
2013-03-04 09:57:00,34.9,26.4,29.48,NNW,327,6.0,6.0,71,0.00,SCT,,0.00,283.0,WeatherDisplay:10.37,2013-03-04 14:57:00,
2013-03-04 10:02:00,35.0,26.5,29.48,West,265,4.6,4.6,71,0.00,SCT,,0.00,278.0,WeatherDisplay:10.37,2013-03-04 15:02:00,
2013-03-04 10:07:00,35.0,26.5,29.47,SE,146,5.0,5.0,71,0.00,BKN,,0.00,244.0,WeatherDisplay:10.37,2013-03-04 15:07:00,
2013-03-04 10:12:00,34.7,26.3,29.47,WNW,299,1.2,1.2,71,0.00,BKN,,0.00,237.0,WeatherDisplay:10.37,2013-03-04 15:12:00,
2013-03-04 10:17:00,34.6,25.8,29.47,WNW,284,3.5,3.5,70,0.00,BKN,,0.00,234.0,WeatherDisplay:10.37,2013-03-04 15:17:00,
2013-03-04 10:22:00,34.6,25.8,29.47,WNW,283,3.5,3.5,70,0.00,BKN,,0.00,225.0,WeatherDisplay:10.37,2013-03-04 15:22:00,
2013-03-04 10:27:00,34.9,25.4,29.47,WNW,284,3.5,3.5,68,0.00,BKN,,0.00,223.0,WeatherDisplay:10.37,2013-03-04 15:27:00,
2013-03-04 10:32:00,35.4,25.2,29.47,West,271,11.5,11.5,66,0.00,BKN,,0.00,239.0,WeatherDisplay:10.37,2013-03-04 15:32:00,
2013-03-04 10:37:00,35.8,24.4,29.47,WNW,288,11.5,11.5,63,0.00,BKN,,0.00,255.0,WeatherDisplay:10.37,2013-03-04 15:37:00,
2013-03-04 10:42:00,36.0,24.6,29.47,WNW,287,13.8,13.8,63,0.00,BKN,,0.00,251.0,WeatherDisplay:10.37,2013-03-04 15:42:00,
2013-03-04 10:47:00,36.1,24.7,29.47,WNW,298,10.0,10.0,63,0.00,BKN,,0.00,237.0,WeatherDisplay:10.37,2013-03-04 15:47:00,
2013-03-04 10:52:00,36.2,24.4,29.47,WNW,302,11.5,11.5,62,0.00,BKN,,0.00,260.0,WeatherDisplay:10.37,2013-03-04 15:52:00,
2013-03-04 10:57:00,36.4,24.6,29.47,WNW,291,10.4,10.4,62,0.00,BKN,,0.00,281.0,WeatherDisplay:10.37,2013-03-04 15:57:00,
2013-03-04 11:02:00,36.4,24.6,29.47,West,268,9.0,9.0,62,0.00,BKN,,0.00,297.0,WeatherDisplay:10.37,2013-03-04 16:02:00,
2013-03-04 11:07:00,36.6,25.2,29.46,WNW,288,5.0,5.0,63,0.00,SCT,,0.00,327.0,WeatherDisplay:10.37,2013-03-04 16:07:00,
2013-03-04 11:12:00,36.8,25.4,29.46,WNW,298,5.8,5.8,63,0.00,BKN,,0.00,285.0,WeatherDisplay:10.37,2013-03-04 16:12:00,
2013-03-04 11:17:00,36.4,25.4,29.46,WNW,303,10.4,10.4,64,0.00,BKN,,0.00,302.0,WeatherDisplay:10.37,2013-03-04 16:17:00,
2013-03-04 11:22:00,36.2,24.8,29.46,WNW,288,18.4,18.4,63,0.00,BKN,,0.00,302.0,WeatherDisplay:10.37,2013-03-04 16:22:00,
2013-03-04 11:27:00,36.2,24.4,29.46,West,275,18.4,18.4,62,0.00,BKN,,0.00,302.0,WeatherDisplay:10.37,2013-03-04 16:27:00,
2013-03-04 11:32:00,36.2,24.8,29.46,WNW,303,13.8,13.8,63,0.00,BKN,,0.00,301.0,WeatherDisplay:10.37,2013-03-04 16:32:00,
2013-03-04 11:37:00,36.2,24.8,29.46,WNW,303,12.7,12.7,63,0.00,BKN,,0.00,276.0,WeatherDisplay:10.37,2013-03-04 16:37:00,
2013-03-04 11:42:00,36.1,24.7,29.46,WNW,300,13.8,13.8,63,0.00,BKN,,0.00,325.0,WeatherDisplay:10.37,2013-03-04 16:42:00,
2013-03-04 11:47:00,36.2,24.8,29.46,NW,312,11.5,11.5,63,0.00,SCT,,0.00,323.0,WeatherDisplay:10.37,2013-03-04 16:47:00,
2013-03-04 11:52:00,36.2,24.8,29.46,West,272,11.5,11.5,63,0.00,BKN,,0.00,281.0,WeatherDisplay:10.37,2013-03-04 16:52:00,
2013-03-04 11:57:00,36.1,25.1,29.46,WNW,302,14.0,14.0,64,0.00,BKN,,0.00,264.0,WeatherDisplay:10.37,2013-03-04 16:57:00,
2013-03-04 12:02:00,35.9,24.9,29.46,NW,304,19.0,19.0,64,0.00,BKN,,0.00,258.0,WeatherDisplay:10.37,2013-03-04 17:02:00,
2013-03-04 12:07:00,35.6,25.0,29.45,WNW,295,16.1,16.1,65,0.00,BKN,,0.00,269.0,WeatherDisplay:10.37,2013-03-04 17:07:00,
2013-03-04 12:12:00,35.5,24.9,29.45,West,277,17.3,17.3,65,0.00,BKN,,0.00,283.0,WeatherDisplay:10.37,2013-03-04 17:12:00,
2013-03-04 12:17:00,35.5,25.3,29.45,WNW,284,11.5,11.5,66,0.00,BKN,,0.00,309.0,WeatherDisplay:10.37,2013-03-04 17:17:00,
2013-03-04 12:22:00,35.6,25.0,29.45,WNW,290,15.0,15.0,65,0.00,SCT,,0.00,346.0,WeatherDisplay:10.37,2013-03-04 17:22:00,
2013-03-04 12:27:00,35.6,25.7,29.45,WSW,253,11.5,11.5,67,0.00,SCT,,0.00,332.0,WeatherDisplay:10.37,2013-03-04 17:27:00,
2013-03-04 12:32:00,35.9,25.3,29.45,NW,306,16.1,16.1,65,0.00,BKN,,0.00,285.0,WeatherDisplay:10.37,2013-03-04 17:32:00,
2013-03-04 12:37:00,35.9,25.3,29.46,WNW,284,12.0,12.0,65,0.00,BKN,,0.00,274.0,WeatherDisplay:10.37,2013-03-04 17:37:00,
2013-03-04 12:42:00,35.7,25.1,29.46,NW,310,11.5,11.5,65,0.00,BKN,,0.00,276.0,WeatherDisplay:10.37,2013-03-04 17:42:00,
2013-03-04 12:47:00,35.7,25.1,29.46,West,263,11.5,11.5,65,0.00,BKN,,0.00,309.0,WeatherDisplay:10.37,2013-03-04 17:47:00,
2013-03-04 12:52:00,36.0,25.4,29.45,WNW,298,18.4,18.4,65,0.00,BKN,,0.00,281.0,WeatherDisplay:10.37,2013-03-04 17:52:00,
2013-03-04 12:57:00,35.9,25.3,29.45,WNW,286,20.7,20.7,65,0.00,BKN,,0.00,272.0,WeatherDisplay:10.37,2013-03-04 17:57:00,
2013-03-04 13:02:00,35.9,25.3,29.45,WSW,258,19.6,19.6,65,0.00,BKN,,0.00,243.0,WeatherDisplay:10.37,2013-03-04 18:02:00,
2013-03-04 13:07:00,35.6,25.0,29.45,West,267,20.7,20.7,65,0.00,BKN,,0.00,262.0,WeatherDisplay:10.37,2013-03-04 18:07:00,
2013-03-04 13:12:00,35.4,25.2,29.45,NNW,327,17.3,17.3,66,0.00,BKN,,0.00,264.0,WeatherDisplay:10.37,2013-03-04 18:12:00,
2013-03-04 13:17:00,35.3,25.4,29.45,WNW,287,18.4,18.4,67,0.00,BKN,,0.00,264.0,WeatherDisplay:10.37,2013-03-04 18:17:00,
2013-03-04 13:22:00,35.2,25.3,29.46,WNW,287,15.0,15.0,67,0.00,BKN,,0.00,274.0,WeatherDisplay:10.37,2013-03-04 18:22:00,
2013-03-04 13:27:00,35.1,25.2,29.46,WNW,288,13.8,13.8,67,0.00,SCT,,0.00,294.0,WeatherDisplay:10.37,2013-03-04 18:27:00,
2013-03-04 13:29:00,35.1,25.2,29.46,West,273,15.0,15.0,67,0.00,SCT,,0.00,299.0,WeatherDisplay:10.37,2013-03-04 18:29:00,
2013-03-04 13:34:00,35.1,25.2,29.46,WNW,295,15.0,15.0,67,0.00,SCT,,0.00,283.0,WeatherDisplay:10.37,2013-03-04 18:34:00,
2013-03-04 13:39:00,35.0,25.5,29.46,West,276,15.0,15.0,68,0.00,BKN,,0.00,253.0,WeatherDisplay:10.37,2013-03-04 18:39:00,
2013-03-04 13:44:00,35.0,25.9,29.46,WNW,300,15.0,15.0,69,0.00,BKN,,0.00,257.0,WeatherDisplay:10.37,2013-03-04 18:44:00,
2013-03-04 13:49:00,35.0,25.9,29.46,WNW,294,13.8,13.8,69,0.00,SCT,,0.00,294.0,WeatherDisplay:10.37,2013-03-04 18:49:00,
2013-03-04 13:54:00,35.0,25.9,29.47,WNW,288,10.0,10.0,69,0.00,SCT,,0.00,290.0,WeatherDisplay:10.37,2013-03-04 18:54:00,
2013-03-04 13:59:00,34.9,25.8,29.47,WNW,299,16.1,16.1,69,0.00,SCT,,0.00,265.0,WeatherDisplay:10.37,2013-03-04 18:59:00,
2013-03-04 14:04:00,34.9,26.1,29.47,NW,304,13.8,13.8,70,0.00,SCT,,0.00,258.0,WeatherDisplay:10.37,2013-03-04 19:04:00,
2013-03-04 14:10:00,34.9,26.1,29.47,WNW,303,10.4,10.4,70,0.00,BKN,,0.00,216.0,WeatherDisplay:10.37,2013-03-04 19:10:00,
2013-03-04 14:15:00,34.9,26.1,29.47,West,269,17.3,17.3,70,0.00,BKN,,0.00,190.0,WeatherDisplay:10.37,2013-03-04 19:15:00,
2013-03-04 14:20:00,34.9,26.1,29.47,West,278,5.0,16.0,70,0.00,BKN,,0.00,186.0,WeatherDisplay:10.37,2013-03-04 19:20:00,
2013-03-04 14:25:00,35.0,26.2,29.47,West,277,11.5,11.5,70,0.00,BKN,,0.00,176.0,WeatherDisplay:10.37,2013-03-04 19:25:00,
2013-03-04 14:30:00,35.0,26.2,29.47,WNW,291,7.0,12.0,70,0.00,BKN,,0.00,181.0,WeatherDisplay:10.37,2013-03-04 19:30:00,
2013-03-04 14:35:00,34.9,26.1,29.47,WNW,298,10.4,10.4,70,0.00,BKN,,0.00,167.0,WeatherDisplay:10.37,2013-03-04 19:35:00,
2013-03-04 14:40:00,34.9,25.8,29.48,WNW,301,11.5,11.5,69,0.00,BKN,,0.00,158.0,WeatherDisplay:10.37,2013-03-04 19:40:00,
2013-03-04 14:45:00,35.0,25.9,29.48,WNW,288,8.1,8.1,69,0.00,BKN,,0.00,151.0,WeatherDisplay:10.37,2013-03-04 19:45:00,
2013-03-04 14:50:00,35.0,25.9,29.48,WNW,292,11.5,11.5,69,0.00,BKN,,0.00,155.0,WeatherDisplay:10.37,2013-03-04 19:50:00,
2013-03-04 14:55:00,35.1,25.6,29.48,WNW,290,3.5,3.5,68,0.00,BKN,,0.00,162.0,WeatherDisplay:10.37,2013-03-04 19:55:00,
2013-03-04 15:00:00,35.2,25.7,29.48,WNW,288,4.6,4.6,68,0.00,BKN,,0.00,162.0,WeatherDisplay:10.37,2013-03-04 20:00:00,
2013-03-04 15:05:00,35.2,25.7,29.48,WNW,299,6.9,6.9,68,0.00,BKN,,0.00,137.0,WeatherDisplay:10.37,2013-03-04 20:05:00,
2013-03-04 15:10:00,35.1,25.6,29.48,WNW,296,10.4,10.4,68,0.00,BKN,,0.00,111.0,WeatherDisplay:10.37,2013-03-04 20:10:00,
2013-03-04 15:15:00,35.1,25.2,29.48,WNW,300,4.6,4.6,67,0.00,BKN,,0.00,98.0,WeatherDisplay:10.37,2013-03-04 20:15:00,
2013-03-04 15:20:00,35.0,25.1,29.48,WNW,294,7.0,7.0,67,0.00,BKN,,0.00,76.0,WeatherDisplay:10.37,2013-03-04 20:20:00,
2013-03-04 15:25:00,34.8,25.3,29.49,WNW,303,4.6,4.6,68,0.00,BKN,,0.00,62.0,WeatherDisplay:10.37,2013-03-04 20:25:00,
2013-03-04 15:30:00,34.7,25.2,29.49,West,275,2.3,2.3,68,0.00,BKN,,0.00,49.0,WeatherDisplay:10.37,2013-03-04 20:30:00,
2013-03-04 15:35:00,34.6,25.5,29.49,WNW,292,3.5,3.5,69,0.00,BKN,,0.00,39.0,WeatherDisplay:10.37,2013-03-04 20:35:00,
2013-03-04 15:40:00,34.4,25.3,29.50,WNW,303,5.8,5.8,69,0.00,BKN,,0.00,47.0,WeatherDisplay:10.37,2013-03-04 20:40:00,
2013-03-04 15:45:00,34.4,25.3,29.50,WNW,293,11.5,11.5,69,0.00,BKN,,0.00,46.0,WeatherDisplay:10.37,2013-03-04 20:45:00,
2013-03-04 15:50:00,34.1,25.0,29.50,WNW,296,5.8,5.8,69,0.00,BKN,,0.00,51.0,WeatherDisplay:10.37,2013-03-04 20:50:00,
2013-03-04 15:55:00,34.0,25.2,29.50,West,271,11.5,11.5,70,0.00,BKN,,0.00,44.0,WeatherDisplay:10.37,2013-03-04 20:55:00,
2013-03-04 16:00:00,33.9,24.8,29.50,NW,308,17.3,17.3,69,0.00,BKN,,0.00,37.0,WeatherDisplay:10.37,2013-03-04 21:00:00,
2013-03-04 16:05:00,33.8,24.7,29.50,West,281,9.2,9.2,69,0.00,BKN,,0.00,33.0,WeatherDisplay:10.37,2013-03-04 21:05:00,
2013-03-04 16:10:00,33.6,24.5,29.50,WNW,300,12.0,12.0,69,0.00,BKN,,0.00,30.0,WeatherDisplay:10.37,2013-03-04 21:10:00,
2013-03-04 16:15:00,33.5,24.4,29.50,West,276,3.5,3.5,69,0.00,BKN,,0.00,28.0,WeatherDisplay:10.37,2013-03-04 21:15:00,
2013-03-04 16:20:00,33.5,24.4,29.50,West,277,2.3,2.3,69,0.00,BKN,,0.00,28.0,WeatherDisplay:10.37,2013-03-04 21:20:00,
2013-03-04 16:25:00,33.5,24.4,29.51,WNW,302,8.1,8.1,69,0.00,BKN,,0.00,32.0,WeatherDisplay:10.37,2013-03-04 21:25:00,
2013-03-04 16:30:00,33.4,24.3,29.51,West,279,11.5,11.5,69,0.00,BKN,,0.00,32.0,WeatherDisplay:10.37,2013-03-04 21:30:00,
2013-03-04 16:35:00,33.3,24.2,29.51,WNW,290,6.9,6.9,69,0.00,BKN,,0.00,35.0,WeatherDisplay:10.37,2013-03-04 21:35:00,
2013-03-04 16:40:00,33.2,24.1,29.51,WNW,287,5.8,5.8,69,0.00,BKN,,0.00,37.0,WeatherDisplay:10.37,2013-03-04 21:40:00,
2013-03-04 16:45:00,33.2,24.1,29.51,West,280,4.6,4.6,69,0.00,BKN,,0.00,35.0,WeatherDisplay:10.37,2013-03-04 21:45:00,
2013-03-04 16:50:00,33.2,24.1,29.51,West,267,9.2,9.2,69,0.00,BKN,,0.00,33.0,WeatherDisplay:10.37,2013-03-04 21:50:00,
2013-03-04 16:55:00,33.2,24.1,29.52,West,281,11.5,11.5,69,0.00,BKN,,0.00,25.0,WeatherDisplay:10.37,2013-03-04 21:55:00,
2013-03-04 17:00:00,33.0,23.9,29.52,West,267,3.5,3.5,69,0.00,BKN,,0.00,18.0,WeatherDisplay:10.37,2013-03-04 22:00:00,
2013-03-04 17:05:00,33.0,23.9,29.52,WNW,299,5.8,5.8,69,0.00,BKN,,0.00,19.0,WeatherDisplay:10.37,2013-03-04 22:05:00,
2013-03-04 17:10:00,32.9,23.8,29.52,WNW,297,4.6,4.6,69,0.00,BKN,,0.00,16.0,WeatherDisplay:10.37,2013-03-04 22:10:00,
2013-03-04 17:15:00,32.8,23.7,29.52,WNW,283,4.6,4.6,69,0.00,BKN,,0.00,11.0,WeatherDisplay:10.37,2013-03-04 22:15:00,
2013-03-04 17:20:00,32.6,23.6,29.52,WSW,241,2.3,2.3,69,0.00,BKN,,0.00,7.0,WeatherDisplay:10.37,2013-03-04 22:20:00,
2013-03-04 17:25:00,32.4,23.7,29.52,West,277,4.0,4.0,70,0.00,BKN,,0.00,5.0,WeatherDisplay:10.37,2013-03-04 22:25:00,
2013-03-04 17:30:00,32.2,23.5,29.52,WNW,302,3.5,3.5,70,0.00,SCT,,0.00,5.0,WeatherDisplay:10.37,2013-03-04 22:30:00,
2013-03-04 17:35:00,32.1,23.4,29.52,West,273,10.4,10.4,70,0.00,CLR,,0.00,0.0,WeatherDisplay:10.37,2013-03-04 22:35:00,
2013-03-04 17:40:00,32.0,23.3,29.53,WNW,296,12.7,12.7,70,0.00,CLR,,0.00,0.0,WeatherDisplay:10.37,2013-03-04 22:40:00,
2013-03-04 17:45:00,31.9,23.6,29.53,WNW,295,11.0,11.0,71,0.00,CLR,,0.00,0.0,WeatherDisplay:10.37,2013-03-04 22:45:00,
2013-03-04 17:50:00,31.7,23.4,29.53,WNW,286,15.0,15.0,71,0.00,CLR,,0.00,0.0,WeatherDisplay:10.37,2013-03-04 22:50:00,
2013-03-04 17:55:00,31.7,23.4,29.53,West,263,10.4,10.4,71,0.00,CLR,,0.00,0.0,WeatherDisplay:10.37,2013-03-04 22:55:00,
2013-03-04 18:00:00,31.6,23.3,29.53,NW,309,10.4,10.4,71,0.00,CLR,,0.00,0.0,WeatherDisplay:10.37,2013-03-04 23:00:00,
2013-03-04 18:05:00,31.6,23.3,29.53,West,281,13.8,13.8,71,0.00,CLR,,0.00,0.0,WeatherDisplay:10.37,2013-03-04 23:05:00,
2013-03-04 18:10:00,31.6,23.3,29.55,West,271,11.5,11.5,71,0.00,CLR,,0.00,0.0,WeatherDisplay:10.37,2013-03-04 23:10:00,
2013-03-04 18:15:00,31.5,23.2,29.55,NW,306,12.0,12.0,71,0.00,CLR,,0.00,0.0,WeatherDisplay:10.37,2013-03-04 23:15:00,
2013-03-04 18:20:00,31.5,23.2,29.55,West,267,20.7,20.7,71,0.00,CLR,,0.00,0.0,WeatherDisplay:10.37,2013-03-04 23:20:00,
2013-03-04 18:25:00,31.4,23.1,29.56,West,280,13.8,13.8,71,0.00,CLR,,0.00,0.0,WeatherDisplay:10.37,2013-03-04 23:25:00,
2013-03-04 18:30:00,31.3,23.0,29.56,West,270,11.5,11.5,71,0.00,CLR,,0.00,0.0,WeatherDisplay:10.37,2013-03-04 23:30:00,
2013-03-04 18:35:00,31.3,23.0,29.56,WNW,293,12.7,12.7,71,0.00,CLR,,0.00,0.0,WeatherDisplay:10.37,2013-03-04 23:35:00,
2013-03-04 18:40:00,31.2,22.9,29.56,NW,314,12.0,12.0,71,0.00,CLR,,0.00,0.0,WeatherDisplay:10.37,2013-03-04 23:40:00,
2013-03-04 18:45:00,31.2,23.2,29.56,West,279,17.0,17.0,72,0.00,CLR,,0.00,0.0,WeatherDisplay:10.37,2013-03-04 23:45:00,
2013-03-04 18:50:00,31.2,22.9,29.56,WNW,286,13.8,13.8,71,0.00,CLR,,0.00,0.0,WeatherDisplay:10.37,2013-03-04 23:50:00,
2013-03-04 18:55:00,31.2,22.9,29.57,SW,223,15.0,15.0,71,0.00,CLR,,0.00,0.0,WeatherDisplay:10.37,2013-03-04 23:55:00,
2013-03-04 19:00:00,31.2,23.2,29.57,WNW,291,20.7,20.7,72,0.00,CLR,,0.00,0.0,WeatherDisplay:10.37,2013-03-05 00:00:00,
2013-03-04 19:05:00,31.3,23.3,29.57,WNW,289,15.0,15.0,72,0.00,CLR,,0.00,0.0,WeatherDisplay:10.37,2013-03-05 00:05:00,
2013-03-04 19:10:00,31.3,23.3,29.57,West,271,15.0,15.0,72,0.00,CLR,,0.00,0.0,WeatherDisplay:10.37,2013-03-05 00:10:00,
2013-03-04 19:15:00,31.4,23.4,29.57,WSW,244,13.8,13.8,72,0.00,CLR,,0.00,0.0,WeatherDisplay:10.37,2013-03-05 00:15:00,
2013-03-04 19:20:00,31.4,23.4,29.57,WNW,300,11.5,11.5,72,0.00,CLR,,0.00,0.0,WeatherDisplay:10.37,2013-03-05 00:20:00,
2013-03-04 19:25:00,31.4,23.7,29.58,SW,230,15.0,15.0,73,0.00,CLR,,0.00,0.0,WeatherDisplay:10.37,2013-03-05 00:25:00,
2013-03-04 19:30:00,31.4,23.7,29.58,NW,307,11.5,11.5,73,0.00,CLR,,0.00,0.0,WeatherDisplay:10.37,2013-03-05 00:30:00,
2013-03-04 19:35:00,31.4,23.7,29.58,WNW,303,11.5,11.5,73,0.00,CLR,,0.00,0.0,WeatherDisplay:10.37,2013-03-05 00:35:00,
2013-03-04 19:40:00,31.4,23.7,29.58,NW,305,15.0,15.0,73,0.00,CLR,,0.00,0.0,WeatherDisplay:10.37,2013-03-05 00:40:00,
2013-03-04 19:45:00,31.3,23.6,29.58,WNW,287,6.9,6.9,73,0.00,CLR,,0.00,0.0,WeatherDisplay:10.37,2013-03-05 00:45:00,
2013-03-04 19:50:00,31.3,23.6,29.58,WNW,286,11.5,11.5,73,0.00,CLR,,0.00,0.0,WeatherDisplay:10.37,2013-03-05 00:50:00,
2013-03-04 19:55:00,31.2,23.9,29.59,WNW,284,9.2,9.2,74,0.00,CLR,,0.00,0.0,WeatherDisplay:10.37,2013-03-05 00:55:00,
2013-03-04 20:00:00,31.2,23.9,29.59,WNW,294,12.7,12.7,74,0.00,CLR,,0.00,0.0,WeatherDisplay:10.37,2013-03-05 01:00:00,
2013-03-04 20:05:00,31.2,23.9,29.59,WNW,291,12.7,12.7,74,0.00,CLR,,0.00,0.0,WeatherDisplay:10.37,2013-03-05 01:05:00,
2013-03-04 20:10:00,31.1,23.8,29.59,West,269,10.4,10.4,74,0.00,CLR,,0.00,0.0,WeatherDisplay:10.37,2013-03-05 01:10:00,
2013-03-04 20:15:00,31.2,23.9,29.59,WNW,294,12.7,12.7,74,0.00,CLR,,0.00,0.0,WeatherDisplay:10.37,2013-03-05 01:15:00,
2013-03-04 20:20:00,31.2,23.9,29.59,WNW,287,5.8,5.8,74,0.00,CLR,,0.00,0.0,WeatherDisplay:10.37,2013-03-05 01:20:00,
2013-03-04 20:25:00,31.2,23.9,29.60,WNW,291,12.7,12.7,74,0.00,CLR,,0.00,0.0,WeatherDisplay:10.37,2013-03-05 01:25:00,
2013-03-04 20:30:00,31.1,23.8,29.60,WSW,255,3.5,4.6,74,0.00,CLR,,0.00,0.0,WeatherDisplay:10.37,2013-03-05 01:30:00,
2013-03-04 20:35:00,31.1,23.8,29.60,West,280,6.9,6.9,74,0.00,CLR,,0.00,0.0,WeatherDisplay:10.37,2013-03-05 01:35:00,
2013-03-04 20:40:00,31.0,23.7,29.61,WNW,288,5.8,5.8,74,0.00,CLR,,0.00,0.0,WeatherDisplay:10.37,2013-03-05 01:40:00,
2013-03-04 20:45:00,31.0,24.0,29.61,WSW,242,10.4,10.4,75,0.00,CLR,,0.00,0.0,WeatherDisplay:10.37,2013-03-05 01:45:00,
2013-03-04 20:50:00,30.9,23.9,29.61,NW,304,11.5,11.5,75,0.00,CLR,,0.00,0.0,WeatherDisplay:10.37,2013-03-05 01:50:00,
2013-03-04 20:55:00,30.9,23.9,29.61,WSW,238,15.0,15.0,75,0.00,CLR,,0.00,0.0,WeatherDisplay:10.37,2013-03-05 01:55:00,
2013-03-04 21:01:00,31.0,24.0,29.61,WNW,296,11.5,11.5,75,0.00,CLR,,0.00,0.0,WeatherDisplay:10.37,2013-03-05 02:01:00,
2013-03-04 21:06:00,31.0,23.7,29.61,NW,311,11.5,11.5,74,0.00,CLR,,0.00,0.0,WeatherDisplay:10.37,2013-03-05 02:06:00,
2013-03-04 21:11:00,31.2,23.9,29.62,NW,313,20.7,20.7,74,0.00,CLR,,0.00,0.0,WeatherDisplay:10.37,2013-03-05 02:11:00,
2013-03-04 21:16:00,31.3,24.0,29.62,West,279,10.4,10.4,74,0.00,CLR,,0.00,0.0,WeatherDisplay:10.37,2013-03-05 02:16:00,
2013-03-04 21:21:00,31.3,24.0,29.62,WNW,295,15.0,15.0,74,0.00,CLR,,0.00,0.0,WeatherDisplay:10.37,2013-03-05 02:21:00,
2013-03-04 21:26:00,31.3,24.0,29.62,WNW,295,11.5,11.5,74,0.00,CLR,,0.00,0.0,WeatherDisplay:10.37,2013-03-05 02:26:00,
2013-03-04 21:31:00,31.4,23.7,29.62,WNW,284,17.0,17.0,73,0.00,CLR,,0.00,0.0,WeatherDisplay:10.37,2013-03-05 02:31:00,
2013-03-04 21:36:00,31.4,23.7,29.62,NW,306,5.8,5.8,73,0.00,CLR,,0.00,0.0,WeatherDisplay:10.37,2013-03-05 02:36:00,
2013-03-04 21:41:00,31.4,23.7,29.62,WSW,252,11.5,11.5,73,0.00,CLR,,0.00,0.0,WeatherDisplay:10.37,2013-03-05 02:41:00,
2013-03-04 21:46:00,31.4,24.1,29.62,SW,232,11.0,11.0,74,0.00,CLR,,0.00,0.0,WeatherDisplay:10.37,2013-03-05 02:46:00,
2013-03-04 21:51:00,31.4,24.1,29.62,West,269,11.5,11.5,74,0.00,CLR,,0.00,0.0,WeatherDisplay:10.37,2013-03-05 02:51:00,
2013-03-04 21:56:00,31.4,23.7,29.63,West,269,9.2,9.2,73,0.00,CLR,,0.00,0.0,WeatherDisplay:10.37,2013-03-05 02:56:00,
2013-03-04 22:01:00,31.4,24.1,29.63,NW,315,10.4,10.4,74,0.00,CLR,,0.00,0.0,WeatherDisplay:10.37,2013-03-05 03:01:00,
2013-03-04 22:06:00,31.5,24.2,29.63,WNW,296,3.5,3.5,74,0.00,CLR,,0.00,0.0,WeatherDisplay:10.37,2013-03-05 03:06:00,
2013-03-04 22:11:00,31.5,23.8,29.64,WNW,288,3.5,3.5,73,0.00,CLR,,0.00,0.0,WeatherDisplay:10.37,2013-03-05 03:11:00,
2013-03-04 22:16:00,31.5,24.2,29.64,WNW,284,10.4,10.4,74,0.00,CLR,,0.00,0.0,WeatherDisplay:10.37,2013-03-05 03:16:00,
2013-03-04 22:21:00,31.5,24.2,29.64,West,281,5.8,5.8,74,0.00,CLR,,0.00,0.0,WeatherDisplay:10.37,2013-03-05 03:21:00,
2013-03-04 22:26:00,31.5,24.2,29.64,West,277,8.1,8.1,74,0.00,CLR,,0.00,0.0,WeatherDisplay:10.37,2013-03-05 03:26:00,
2013-03-04 22:31:00,31.5,24.2,29.64,WNW,296,13.8,13.8,74,0.00,CLR,,0.00,0.0,WeatherDisplay:10.37,2013-03-05 03:31:00,
2013-03-04 22:36:00,31.6,24.3,29.64,WNW,282,11.5,11.5,74,0.00,CLR,,0.00,0.0,WeatherDisplay:10.37,2013-03-05 03:36:00,
2013-03-04 22:41:00,31.7,24.0,29.64,West,281,10.4,10.4,73,0.00,CLR,,0.00,0.0,WeatherDisplay:10.37,2013-03-05 03:41:00,
2013-03-04 22:46:00,31.8,24.1,29.64,West,275,4.6,4.6,73,0.00,CLR,,0.00,0.0,WeatherDisplay:10.37,2013-03-05 03:46:00,
2013-03-04 22:51:00,31.9,24.2,29.64,West,275,11.5,11.5,73,0.00,CLR,,0.00,0.0,WeatherDisplay:10.37,2013-03-05 03:51:00,
2013-03-04 22:56:00,31.9,24.2,29.64,WNW,291,4.6,4.6,73,0.00,CLR,,0.00,0.0,WeatherDisplay:10.37,2013-03-05 03:56:00,
2013-03-04 23:01:00,32.0,24.6,29.64,WNW,291,12.0,12.0,74,0.00,CLR,,0.00,0.0,WeatherDisplay:10.37,2013-03-05 04:01:00,
2013-03-04 23:06:00,32.1,24.4,29.64,West,275,15.0,15.0,73,0.00,CLR,,0.00,0.0,WeatherDisplay:10.37,2013-03-05 04:06:00,
2013-03-04 23:11:00,32.3,24.6,29.64,WNW,297,15.0,15.0,73,0.00,CLR,,0.00,0.0,WeatherDisplay:10.37,2013-03-05 04:11:00,
2013-03-04 23:16:00,32.4,24.7,29.64,West,279,14.0,14.0,73,0.00,CLR,,0.00,0.0,WeatherDisplay:10.37,2013-03-05 04:16:00,
2013-03-04 23:21:00,32.5,24.5,29.64,West,271,6.9,6.9,72,0.00,CLR,,0.00,0.0,WeatherDisplay:10.37,2013-03-05 04:21:00,
2013-03-04 23:26:00,32.5,24.8,29.65,WNW,294,6.9,6.9,73,0.00,CLR,,0.00,0.0,WeatherDisplay:10.37,2013-03-05 04:26:00,
2013-03-04 23:31:00,32.5,24.5,29.65,West,276,9.0,9.0,72,0.00,CLR,,0.00,0.0,WeatherDisplay:10.37,2013-03-05 04:31:00,
2013-03-04 23:36:00,32.5,24.8,29.65,West,275,11.5,11.5,73,0.00,CLR,,0.00,0.0,WeatherDisplay:10.37,2013-03-05 04:36:00,
2013-03-04 23:41:00,32.5,24.8,29.65,West,262,11.5,11.5,73,0.00,CLR,,0.00,0.0,WeatherDisplay:10.37,2013-03-05 04:41:00,
2013-03-04 23:46:00,32.5,24.8,29.65,WNW,287,12.7,12.7,73,0.00,CLR,,0.00,0.0,WeatherDisplay:10.37,2013-03-05 04:46:00,
2013-03-04 23:51:00,32.5,24.8,29.65,WSW,255,16.0,16.0,73,0.00,CLR,,0.00,0.0,WeatherDisplay:10.37,2013-03-05 04:51:00,
2013-03-04 23:56:00,32.5,24.8,29.65,NW,317,11.5,11.5,73,0.00,CLR,,0.00,0.0,WeatherDisplay:10.37,2013-03-05 04:56:00,